createdAt,value
2023-04-09T00:00:18.133Z,98421.72
2023-04-09T00:02:45.564Z,98417.09
2023-04-09T00:05:12.860Z,98421.19
2023-04-09T00:07:40.164Z,98421.56
2023-04-09T00:10:07.751Z,98427.84
2023-04-09T00:12:34.919Z,98423.94
2023-04-09T00:15:01.979Z,98426.97
2023-04-09T00:17:29.173Z,98432.13
2023-04-09T00:19:56.325Z,98433.41
2023-04-09T00:22:23.404Z,98431.56
2023-04-09T00:24:50.832Z,98438.56
2023-04-09T00:27:18.069Z,98434.72
2023-04-09T00:29:45.504Z,98440.94
2023-04-09T00:32:12.624Z,98437.00
2023-04-09T00:34:39.812Z,98442.81
2023-04-09T00:37:07.013Z,98448.69
2023-04-09T00:39:34.174Z,98441.06
2023-04-09T00:42:04.400Z,98445.41
2023-04-09T00:44:31.546Z,98445.94
2023-04-09T00:47:00.776Z,98435.00
2023-04-09T00:49:28.031Z,98429.72
2023-04-09T00:51:55.382Z,98431.13
2023-04-09T00:54:22.868Z,98425.56
2023-04-09T00:56:50.104Z,98419.53
2023-04-09T00:59:17.430Z,98420.38
2023-04-09T01:01:45.104Z,98416.59
2023-04-09T01:04:12.320Z,98406.06
2023-04-09T01:06:48.980Z,98416.78
2023-04-09T01:09:22.376Z,98408.56
2023-04-09T01:12:18.412Z,98410.31
2023-04-09T01:14:48.478Z,98408.28
2023-04-09T01:17:38.355Z,98408.28
2023-04-09T01:20:42.591Z,98408.25
2023-04-09T01:23:27.145Z,98409.78
2023-04-09T01:26:07.462Z,98410.94
2023-04-09T01:28:57.368Z,98405.25
2023-04-09T01:31:35.468Z,98406.06
2023-04-09T01:34:03.871Z,98410.28
2023-04-09T01:36:32.910Z,98406.00
2023-04-09T01:39:02.493Z,98398.44
2023-04-09T01:41:32.724Z,98405.06
2023-04-09T01:44:02.061Z,98413.53
2023-04-09T01:46:30.025Z,98407.22
2023-04-09T01:48:57.950Z,98400.66
2023-04-09T01:51:26.695Z,98397.41
2023-04-09T01:54:25.403Z,98403.72
2023-04-09T01:56:52.460Z,98396.91
2023-04-09T01:59:19.658Z,98400.13
2023-04-09T02:01:50.248Z,98398.59
2023-04-09T02:04:25.049Z,98397.22
2023-04-09T02:07:10.258Z,98396.63
2023-04-09T02:10:10.121Z,98398.91
2023-04-09T02:12:38.779Z,98397.88
2023-04-09T02:15:07.771Z,98384.50
2023-04-09T02:17:35.418Z,98393.03
2023-04-09T02:24:24.666Z,98387.00
2023-04-09T02:26:52.561Z,98389.75
2023-04-09T02:29:19.754Z,98385.63
2023-04-09T02:32:18.564Z,98404.03
2023-04-09T02:34:46.121Z,98404.72
2023-04-09T02:37:13.313Z,98395.81
2023-04-09T02:39:40.422Z,98391.69
2023-04-09T02:42:39.551Z,98402.06
2023-04-09T02:45:07.931Z,98395.63
2023-04-09T02:47:35.095Z,98399.41
2023-04-09T02:50:02.416Z,98402.19
2023-04-09T02:52:32.992Z,98396.13
2023-04-09T02:55:00.151Z,98393.50
2023-04-09T02:57:27.241Z,98381.34
2023-04-09T02:59:54.451Z,98381.88
2023-04-09T03:02:21.916Z,98382.13
2023-04-09T03:04:49.258Z,98400.53
2023-04-09T03:07:16.381Z,98382.09
2023-04-09T03:09:43.498Z,98382.66
2023-04-09T03:12:11.168Z,98383.16
2023-04-09T03:14:38.343Z,98392.31
2023-04-09T03:17:05.481Z,98385.00
2023-04-09T03:19:32.581Z,98391.13
2023-04-09T03:22:00.952Z,98394.75
2023-04-09T03:24:33.186Z,98396.50
2023-04-09T03:27:05.146Z,98396.69
2023-04-09T03:29:33.144Z,98402.19
2023-04-09T03:32:00.577Z,98406.97
2023-04-09T03:34:27.695Z,98398.34
2023-04-09T03:36:57.328Z,98400.59
2023-04-09T03:39:31.126Z,98400.59
2023-04-09T03:41:59.125Z,98400.94
2023-04-09T03:44:30.089Z,98401.22
2023-04-09T03:47:13.025Z,98401.38
2023-04-09T03:49:40.746Z,98403.13
2023-04-09T03:52:18.293Z,98401.72
2023-04-09T03:54:52.246Z,98405.09
2023-04-09T03:58:32.496Z,98407.22
2023-04-09T04:01:00.806Z,98407.72
2023-04-09T04:03:39.268Z,98413.63
2023-04-09T04:06:27.433Z,98408.28
2023-04-09T04:09:13.109Z,98416.06
2023-04-09T04:11:48.640Z,98414.56
2023-04-09T04:14:17.393Z,98408.88
2023-04-09T04:16:49.013Z,98417.66
2023-04-09T04:19:20.011Z,98408.78
2023-04-09T04:21:50.329Z,98417.38
2023-04-09T04:24:17.666Z,98416.16
2023-04-09T04:26:45.433Z,98413.66
2023-04-09T04:29:15.986Z,98409.69
2023-04-09T04:32:11.918Z,98414.44
2023-04-09T04:34:39.157Z,98421.50
2023-04-09T04:37:16.775Z,98413.47
2023-04-09T04:39:44.088Z,98414.97
2023-04-09T04:42:14.972Z,98418.69
2023-04-09T04:44:42.820Z,98418.28
2023-04-09T04:47:26.603Z,98411.94
2023-04-09T04:49:54.085Z,98415.34
2023-04-09T04:52:22.090Z,98416.28
2023-04-09T04:54:52.426Z,98415.00
2023-04-09T04:57:23.168Z,98412.84
2023-04-09T04:59:50.441Z,98417.53
2023-04-09T05:02:18.575Z,98421.44
2023-04-09T05:05:15.983Z,98416.94
2023-04-09T05:07:51.807Z,98424.63
2023-04-09T05:10:19.141Z,98416.25
2023-04-09T05:12:46.954Z,98417.81
2023-04-09T05:15:21.924Z,98414.94
2023-04-09T05:17:49.687Z,98417.47
2023-04-09T05:20:17.644Z,98422.16
2023-04-09T05:22:52.500Z,98427.00
2023-04-09T05:25:26.780Z,98430.03
2023-04-09T05:27:53.977Z,98435.56
2023-04-09T05:30:21.781Z,98431.19
2023-04-09T05:32:49.163Z,98435.03
2023-04-09T05:35:17.180Z,98429.81
2023-04-09T05:37:45.089Z,98430.16
2023-04-09T05:40:18.912Z,98432.91
2023-04-09T05:42:46.663Z,98433.56
2023-04-09T05:45:21.899Z,98439.06
2023-04-09T05:47:52.642Z,98430.16
2023-04-09T05:50:22.552Z,98437.19
2023-04-09T05:53:38.532Z,98445.53
2023-04-09T05:56:15.632Z,98446.91
2023-04-09T05:58:52.145Z,98444.53
2023-04-09T06:01:19.442Z,98437.69
2023-04-09T06:03:46.842Z,98441.75
2023-04-09T06:06:14.103Z,98429.56
2023-04-09T06:08:41.631Z,98435.88
2023-04-09T06:11:14.810Z,98434.72
2023-04-09T06:13:42.209Z,98437.31
2023-04-09T06:16:10.178Z,98437.28
2023-04-09T06:18:38.035Z,98447.78
2023-04-09T06:21:13.974Z,98455.75
2023-04-09T06:23:41.231Z,98460.03
2023-04-09T06:26:08.285Z,98458.31
2023-04-09T06:28:36.671Z,98459.94
2023-04-09T06:31:03.882Z,98457.91
2023-04-09T06:33:31.303Z,98460.75
2023-04-09T06:35:59.278Z,98456.78
2023-04-09T06:38:26.445Z,98467.44
2023-04-09T06:40:53.617Z,98470.75
2023-04-09T06:43:20.872Z,98464.22
2023-04-09T06:45:50.464Z,98469.13
2023-04-09T06:48:17.566Z,98464.34
2023-04-09T06:50:46.997Z,98467.75
2023-04-09T06:53:16.302Z,98470.63
2023-04-09T06:55:43.668Z,98464.59
2023-04-09T06:58:10.921Z,98455.81
2023-04-09T07:00:38.083Z,98450.00
2023-04-09T07:03:08.198Z,98456.19
2023-04-09T07:05:36.135Z,98450.09
2023-04-09T07:08:04.322Z,98452.19
2023-04-09T07:10:31.559Z,98445.88
2023-04-09T07:12:58.668Z,98450.63
2023-04-09T07:15:25.940Z,98458.94
2023-04-09T07:17:53.270Z,98450.63
2023-04-09T07:20:20.728Z,98450.91
2023-04-09T07:22:47.894Z,98450.91
2023-04-09T07:25:16.250Z,98451.75
2023-04-09T07:27:43.588Z,98451.31
2023-04-09T07:30:11.006Z,98457.44
2023-04-09T07:32:38.276Z,98450.38
2023-04-09T07:35:08.147Z,98458.56
2023-04-09T07:37:35.660Z,98451.44
2023-04-09T07:40:04.178Z,98455.91
2023-04-09T07:42:31.342Z,98448.97
2023-04-09T07:44:58.694Z,98457.84
2023-04-09T07:47:27.203Z,98454.13
2023-04-09T07:49:54.375Z,98458.50
2023-04-09T07:52:21.526Z,98460.63
2023-04-09T07:54:48.568Z,98456.97
2023-04-09T07:57:16.030Z,98463.09
2023-04-09T07:59:43.305Z,98454.81
2023-04-09T08:02:13.446Z,98458.69
2023-04-09T08:04:42.211Z,98466.94
2023-04-09T08:07:09.633Z,98459.69
2023-04-09T08:09:36.676Z,98451.84
2023-04-09T08:12:04.043Z,98448.06
2023-04-09T08:14:31.312Z,98450.09
2023-04-09T08:16:58.461Z,98450.72
2023-04-09T08:19:25.549Z,98449.28
2023-04-09T08:21:52.679Z,98445.88
2023-04-09T08:24:19.852Z,98446.63
2023-04-09T08:26:47.212Z,98449.22
2023-04-09T08:29:15.558Z,98453.72
2023-04-09T08:31:43.287Z,98455.47
2023-04-09T08:34:10.559Z,98457.28
2023-04-09T08:36:37.835Z,98454.56
2023-04-09T08:39:05.092Z,98456.00
2023-04-09T08:41:32.374Z,98456.03
2023-04-09T08:44:00.099Z,98460.44
2023-04-09T08:46:28.099Z,98465.34
2023-04-09T08:48:56.092Z,98458.25
2023-04-09T08:51:24.876Z,98460.00
2023-04-09T08:53:57.251Z,98450.88
2023-04-09T08:56:24.845Z,98451.03
2023-04-09T08:58:53.546Z,98449.06
2023-04-09T09:01:31.160Z,98449.53
2023-04-09T09:04:05.226Z,98453.97
2023-04-09T09:06:41.007Z,98450.22
2023-04-09T09:09:19.048Z,98455.47
2023-04-09T09:11:48.696Z,98447.19
2023-04-09T09:14:20.193Z,98446.53
2023-04-09T09:16:56.876Z,98444.88
2023-04-09T09:19:26.946Z,98452.75
2023-04-09T09:21:58.059Z,98444.72
2023-04-09T09:24:25.226Z,98458.81
2023-04-09T09:26:52.891Z,98449.28
2023-04-09T09:29:20.275Z,98457.34
2023-04-09T09:31:57.207Z,98454.38
2023-04-09T09:34:25.677Z,98451.09
2023-04-09T09:36:53.035Z,98444.31
2023-04-09T09:39:20.350Z,98443.59
2023-04-09T09:41:48.977Z,98447.84
2023-04-09T09:44:32.955Z,98447.28
2023-04-09T10:17:52.751Z,98412.38
2023-04-09T10:20:23.168Z,98418.03
2023-04-09T10:22:51.940Z,98415.59
2023-04-09T10:25:19.639Z,98419.03
2023-04-09T10:27:49.379Z,98410.09
2023-04-09T10:30:36.057Z,98415.22
2023-04-09T10:33:17.284Z,98417.16
2023-04-09T10:35:47.819Z,98412.22
2023-04-09T10:38:15.805Z,98410.75
2023-04-09T10:40:53.533Z,98407.78
2023-04-09T10:43:22.356Z,98411.19
2023-04-09T10:45:53.647Z,98394.44
2023-04-09T10:48:22.192Z,98399.47
2023-04-09T10:50:54.129Z,98384.69
2023-04-09T10:53:24.008Z,98385.22
2023-04-09T10:55:53.129Z,98384.22
2023-04-09T10:58:21.270Z,98381.31
2023-04-09T11:00:50.738Z,98387.38
2023-04-09T11:03:30.704Z,98381.94
2023-04-09T11:06:02.514Z,98373.03
2023-04-09T11:08:33.962Z,98377.34
2023-04-09T11:11:02.177Z,98376.88
2023-04-09T11:13:31.416Z,98375.94
2023-04-09T11:16:00.399Z,98368.81
2023-04-09T11:18:30.057Z,98368.38
2023-04-09T11:21:01.753Z,98371.97
2023-04-09T11:23:29.347Z,98362.59
2023-04-09T11:25:56.695Z,98359.34
2023-04-09T11:28:24.521Z,98357.38
2023-04-09T11:30:52.408Z,98348.25
2023-04-09T11:33:20.469Z,98343.97
2023-04-09T11:35:48.995Z,98344.78
2023-04-09T11:38:16.305Z,98333.63
2023-04-09T11:40:48.935Z,98330.50
2023-04-09T11:43:17.204Z,98329.00
2023-04-09T11:45:44.997Z,98326.41
2023-04-09T11:48:13.237Z,98330.56
2023-04-09T11:50:40.804Z,98324.97
2023-04-09T11:53:21.615Z,98312.69
2023-04-09T11:55:53.472Z,98318.91
2023-04-09T11:58:25.713Z,98313.81
2023-04-09T12:00:58.277Z,98322.75
2023-04-09T12:03:34.674Z,98319.41
2023-04-09T12:06:03.311Z,98312.31
2023-04-09T12:08:31.479Z,98314.31
2023-04-09T12:11:09.274Z,98313.91
2023-04-09T12:13:36.518Z,98307.09
2023-04-09T12:16:04.111Z,98311.25
2023-04-09T12:18:31.393Z,98313.22
2023-04-09T12:20:58.521Z,98308.00
2023-04-09T12:23:25.784Z,98308.28
2023-04-09T12:25:53.252Z,98292.44
2023-04-09T12:28:20.427Z,98299.41
2023-04-09T12:30:49.249Z,98296.56
2023-04-09T12:33:16.525Z,98297.69
2023-04-09T12:35:43.749Z,98294.94
2023-04-09T12:38:10.876Z,98301.72
2023-04-09T12:40:38.832Z,98296.03
2023-04-09T12:43:06.401Z,98292.19
2023-04-09T12:45:33.620Z,98293.72
2023-04-09T12:48:00.799Z,98288.75
2023-04-09T12:50:28.490Z,98295.91
2023-04-09T12:52:55.696Z,98290.84
2023-04-09T12:55:23.108Z,98286.38
2023-04-09T12:57:50.864Z,98283.22
2023-04-09T13:00:17.996Z,98281.59
2023-04-09T13:02:45.158Z,98276.41
2023-04-09T13:05:12.321Z,98276.09
2023-04-09T13:07:41.517Z,98280.06
2023-04-09T13:10:10.036Z,98279.50
2023-04-09T13:12:37.503Z,98275.75
2023-04-09T13:15:04.976Z,98269.47
2023-04-09T13:17:32.138Z,98271.22
2023-04-09T13:19:59.375Z,98276.88
2023-04-09T13:22:26.519Z,98268.63
2023-04-09T13:24:53.616Z,98258.06
2023-04-09T13:27:20.936Z,98264.03
2023-04-09T13:29:48.019Z,98261.44
2023-04-09T13:32:15.132Z,98262.78
2023-04-09T13:34:42.300Z,98244.50
2023-04-09T13:37:09.425Z,98256.06
2023-04-09T13:39:36.488Z,98251.88
2023-04-09T13:42:12.608Z,98252.69
2023-04-09T13:44:42.546Z,98256.00
2023-04-09T13:47:11.456Z,98266.13
2023-04-09T13:49:41.688Z,98259.88
2023-04-09T13:52:09.682Z,98260.59
2023-04-09T13:54:37.367Z,98256.53
2023-04-09T13:57:04.481Z,98261.63
2023-04-09T13:59:31.679Z,98262.56
2023-04-09T14:01:58.843Z,98253.53
2023-04-09T14:04:26.259Z,98257.41
2023-04-09T14:06:53.436Z,98271.84
2023-04-09T14:09:20.476Z,98263.25
2023-04-09T14:11:47.617Z,98255.66
2023-04-09T14:14:14.807Z,98255.13
2023-04-09T14:16:41.956Z,98249.50
2023-04-09T14:19:10.265Z,98256.75
2023-04-09T14:21:37.486Z,98263.25
2023-04-09T14:24:04.782Z,98257.94
2023-04-09T14:26:32.055Z,98254.94
2023-04-09T14:28:59.170Z,98261.97
2023-04-09T14:31:26.404Z,98263.00
2023-04-09T14:33:53.668Z,98257.22
2023-04-09T14:36:20.835Z,98261.34
2023-04-09T14:38:49.245Z,98264.84
2023-04-09T14:41:17.216Z,98273.88
2023-04-09T14:43:44.437Z,98264.53
2023-04-09T14:46:12.301Z,98267.00
2023-04-09T14:48:40.357Z,98267.56
2023-04-09T14:51:09.987Z,98261.59
2023-04-09T14:53:37.400Z,98262.66
2023-04-09T14:56:04.737Z,98259.88
2023-04-09T14:58:32.121Z,98260.84
2023-04-09T15:00:59.188Z,98258.88
2023-04-09T15:03:26.545Z,98257.91
2023-04-09T15:05:53.789Z,98253.19
2023-04-09T15:08:21.086Z,98264.59
2023-04-09T15:10:48.250Z,98257.63
2023-04-09T15:13:15.591Z,98257.84
2023-04-09T15:15:44.307Z,98262.97
2023-04-09T15:18:11.469Z,98263.06
2023-04-09T15:20:40.156Z,98260.31
2023-04-09T15:23:07.294Z,98260.59
2023-04-09T15:25:34.434Z,98267.91
2023-04-09T15:28:03.293Z,98264.75
2023-04-09T15:30:30.836Z,98255.47
2023-04-09T15:32:58.299Z,98262.75
2023-04-09T15:35:29.380Z,98258.50
2023-04-09T15:37:57.348Z,98254.81
2023-04-09T15:40:24.569Z,98257.06
2023-04-09T15:42:51.748Z,98259.78
2023-04-09T15:45:18.823Z,98261.06
2023-04-09T15:47:46.646Z,98254.97
2023-04-09T15:50:14.561Z,98253.03
2023-04-09T15:52:42.059Z,98259.16
2023-04-09T15:55:09.777Z,98251.13
2023-04-09T15:57:38.468Z,98248.31
2023-04-09T16:00:10.388Z,98250.53
2023-04-09T16:02:38.927Z,98246.41
2023-04-09T16:05:07.310Z,98254.41
2023-04-09T16:07:34.807Z,98246.94
2023-04-09T16:10:02.723Z,98246.66
2023-04-09T16:12:29.894Z,98255.50
2023-04-09T16:14:56.999Z,98247.66
2023-04-09T16:17:24.227Z,98251.78
2023-04-09T16:19:51.501Z,98248.31
2023-04-09T16:22:18.551Z,98250.84
2023-04-09T16:24:45.954Z,98249.16
2023-04-09T16:27:14.559Z,98248.59
2023-04-09T16:29:41.712Z,98247.81
2023-04-09T16:32:08.935Z,98245.44
2023-04-09T16:34:36.304Z,98244.03
2023-04-09T16:37:03.723Z,98244.19
2023-04-09T16:39:31.138Z,98244.75
2023-04-09T16:42:01.820Z,98237.97
2023-04-09T16:44:29.020Z,98242.00
2023-04-09T16:46:56.633Z,98238.09
2023-04-09T16:49:23.927Z,98245.84
2023-04-09T16:51:53.277Z,98248.06
2023-04-09T16:54:20.783Z,98247.66
2023-04-09T16:56:48.888Z,98248.06
2023-04-09T16:59:18.490Z,98246.66
2023-04-09T17:01:45.916Z,98242.81
2023-04-09T17:04:13.421Z,98256.19
2023-04-09T17:06:40.688Z,98263.25
2023-04-09T17:09:08.167Z,98254.91
2023-04-09T17:11:35.484Z,98258.69
2023-04-09T17:14:02.557Z,98262.97
2023-04-09T17:16:29.720Z,98259.84
2023-04-09T17:18:56.860Z,98267.19
2023-04-09T17:21:23.903Z,98268.88
2023-04-09T17:23:51.299Z,98267.31
2023-04-09T17:26:19.087Z,98265.91
2023-04-09T17:28:46.915Z,98268.97
2023-04-09T17:31:16.157Z,98274.03
2023-04-09T17:33:47.125Z,98271.69
2023-04-09T17:36:14.857Z,98280.13
2023-04-09T17:38:42.654Z,98269.19
2023-04-09T17:41:09.778Z,98284.22
2023-04-09T17:43:37.394Z,98285.44
2023-04-09T17:46:04.800Z,98285.22
2023-04-09T17:48:32.360Z,98278.44
2023-04-09T17:50:59.443Z,98289.88
2023-04-09T17:53:27.193Z,98291.03
2023-04-09T17:55:54.384Z,98292.47
2023-04-09T17:58:21.501Z,98291.13
2023-04-09T18:00:48.677Z,98295.75
2023-04-09T18:03:16.532Z,98293.88
2023-04-09T18:05:44.036Z,98295.03
2023-04-09T18:08:11.566Z,98293.00
2023-04-09T18:10:38.642Z,98290.75
2023-04-09T18:13:05.722Z,98286.84
2023-04-09T18:15:32.820Z,98293.94
2023-04-09T18:17:59.992Z,98289.88
2023-04-09T18:20:27.185Z,98291.44
2023-04-09T18:22:55.644Z,98295.44
2023-04-09T18:25:23.533Z,98289.22
2023-04-09T18:27:50.673Z,98296.84
2023-04-09T18:30:18.033Z,98300.97
2023-04-09T18:32:45.166Z,98302.19
2023-04-09T18:35:12.387Z,98300.03
2023-04-09T18:38:49.016Z,98292.16
2023-04-09T18:41:30.171Z,98287.97
2023-04-09T18:43:57.249Z,98294.31
2023-04-09T18:46:24.327Z,98293.16
2023-04-09T18:48:51.894Z,98291.22
2023-04-09T18:51:20.751Z,98285.16
2023-04-09T18:53:52.973Z,98294.03
2023-04-09T18:56:21.261Z,98293.56
2023-04-09T18:58:49.200Z,98297.50
2023-04-09T19:01:17.674Z,98291.47
2023-04-09T19:03:45.602Z,98293.22
2023-04-09T19:06:14.763Z,98288.41
2023-04-09T19:08:42.033Z,98294.28
2023-04-09T19:11:09.215Z,98294.38
2023-04-09T19:13:37.861Z,98283.72
2023-04-09T19:16:06.410Z,98287.28
2023-04-09T19:18:34.410Z,98288.88
2023-04-09T19:21:01.705Z,98279.81
2023-04-09T19:23:28.808Z,98282.63
2023-04-09T19:25:56.100Z,98274.34
2023-04-09T19:28:23.432Z,98274.88
2023-04-09T19:30:52.477Z,98278.56
2023-04-09T19:33:24.824Z,98279.19
2023-04-09T19:35:53.148Z,98267.34
2023-04-09T19:38:20.821Z,98272.44
2023-04-09T19:40:48.003Z,98266.50
2023-04-09T19:43:15.118Z,98266.28
2023-04-09T19:45:45.453Z,98259.06
2023-04-09T19:48:12.791Z,98257.53
2023-04-09T19:50:46.679Z,98256.38
2023-04-09T19:53:13.812Z,98253.44
2023-04-09T19:55:41.231Z,98253.84
2023-04-09T19:58:08.301Z,98253.78
2023-04-09T20:00:35.567Z,98259.31
2023-04-09T20:03:03.428Z,98247.88
2023-04-09T20:05:30.587Z,98249.25
2023-04-09T20:07:57.732Z,98251.75
2023-04-09T20:10:25.049Z,98254.78
2023-04-09T20:12:52.559Z,98254.28
2023-04-09T20:15:22.797Z,98243.50
2023-04-09T20:17:51.341Z,98240.28
2023-04-09T20:20:20.043Z,98244.88
2023-04-09T20:22:56.477Z,98244.66
2023-04-09T20:25:24.130Z,98252.03
2023-04-09T20:27:54.692Z,98244.19
2023-04-09T20:30:22.821Z,98242.59
2023-04-09T20:32:49.968Z,98244.91
2023-04-09T20:35:17.234Z,98238.06
2023-04-09T20:37:44.444Z,98237.94
2023-04-09T20:40:12.517Z,98240.78
2023-04-09T20:42:40.973Z,98228.69
2023-04-09T20:45:11.537Z,98232.84
2023-04-09T20:47:38.717Z,98232.03
2023-04-09T20:50:06.589Z,98217.84
2023-04-09T20:52:33.637Z,98217.63
2023-04-09T20:55:01.054Z,98220.81
2023-04-09T20:57:28.407Z,98210.72
2023-04-09T20:59:55.587Z,98216.88
2023-04-09T21:02:23.794Z,98218.13
2023-04-09T21:04:50.899Z,98217.00
2023-04-09T21:07:18.154Z,98214.06
2023-04-09T21:09:45.393Z,98210.41
2023-04-09T21:12:12.459Z,98217.63
2023-04-09T21:14:39.675Z,98206.44
2023-04-09T21:17:06.978Z,98201.75
2023-04-09T21:19:34.153Z,98208.09
2023-04-09T21:22:01.253Z,98210.47
2023-04-09T21:24:28.497Z,98208.25
2023-04-09T21:26:55.694Z,98203.53
2023-04-09T21:29:22.794Z,98205.78
2023-04-09T21:31:50.356Z,98203.50
2023-04-09T21:34:17.532Z,98213.22
2023-04-09T21:36:45.580Z,98204.59
2023-04-09T21:39:13.272Z,98201.38
2023-04-09T21:41:40.398Z,98208.31
2023-04-09T21:44:10.335Z,98209.59
2023-04-09T21:47:09.771Z,98199.25
2023-04-09T21:49:40.277Z,98207.69
2023-04-09T21:52:14.466Z,98210.22
2023-04-09T21:54:42.618Z,98208.69
2023-04-09T21:57:10.943Z,98211.44
2023-04-09T21:59:38.063Z,98203.72
2023-04-09T22:02:05.839Z,98203.50
2023-04-09T22:04:35.313Z,98203.38
2023-04-09T22:07:03.407Z,98202.69
2023-04-09T22:09:31.710Z,98198.66
2023-04-09T22:11:59.682Z,98202.34
2023-04-09T22:14:29.666Z,98197.44
2023-04-09T22:16:58.454Z,98212.56
2023-04-09T22:19:26.327Z,98201.13
2023-04-09T22:21:53.802Z,98205.59
2023-04-09T22:24:27.033Z,98204.16
2023-04-09T22:26:54.423Z,98205.81
2023-04-09T22:29:21.601Z,98202.19
2023-04-09T22:31:48.754Z,98201.34
2023-04-09T22:34:21.316Z,98198.19
2023-04-09T22:36:49.644Z,98193.09
2023-04-09T22:39:17.138Z,98183.28
2023-04-09T22:41:44.426Z,98185.66
2023-04-09T22:44:11.564Z,98177.75
2023-04-09T22:46:38.705Z,98174.53
2023-04-09T22:49:06.273Z,98182.34
2023-04-09T22:51:34.864Z,98178.94
2023-04-09T22:54:02.396Z,98165.69
2023-04-09T22:56:31.977Z,98165.16
2023-04-09T22:58:59.597Z,98169.13
2023-04-09T23:01:27.349Z,98171.09
2023-04-09T23:03:54.813Z,98161.50
2023-04-09T23:06:22.858Z,98166.34
2023-04-09T23:08:50.705Z,98161.72
2023-04-09T23:11:17.934Z,98158.81
2023-04-09T23:13:45.415Z,98154.25
2023-04-09T23:16:14.475Z,98151.41
2023-04-09T23:18:41.686Z,98146.00
2023-04-09T23:21:09.627Z,98142.13
2023-04-09T23:23:37.711Z,98138.72
2023-04-09T23:26:05.604Z,98131.59
2023-04-09T23:28:32.738Z,98132.00
2023-04-09T23:31:00.087Z,98124.13
2023-04-09T23:33:27.302Z,98117.31
2023-04-09T23:35:54.455Z,98119.66
2023-04-09T23:38:21.661Z,98118.81
2023-04-09T23:40:49.323Z,98117.28
2023-04-09T23:43:16.901Z,98109.88
2023-04-09T23:45:44.523Z,98107.88
2023-04-09T23:49:19.754Z,98106.63
2023-04-09T23:51:46.810Z,98106.22
2023-04-09T23:54:13.891Z,98102.94
2023-04-09T23:56:40.923Z,98105.00
2023-04-09T23:59:08.073Z,98104.59
